Time;durP1;ratioP1;P1;durP2;ratioP2;P2;SDS_P1;SDS_P2;PMS_P1;PMS_P2;Temp;Humidity;BMP_temperature;BMP_pressure;BME280_temperature;BME280_humidity;BME280_pressure;Samples;Min_cycle;Max_cycle;Signal;HPM_P1;HPM_P2
2021/03/30 00:00:08;;;;;;;14.13;9.10;;;6.50;94.00;;;;;;5046364;28;20139;-81
2021/03/30 00:02:35;;;;;;;18.13;9.57;;;6.60;94.20;;;;;;5031543;28;20064;-81
2021/03/30 00:05:00;;;;;;;17.38;9.43;;;6.50;94.00;;;;;;5036023;28;20071;-81
2021/03/30 00:07:26;;;;;;;17.17;9.95;;;6.50;94.20;;;;;;5025975;28;20045;-80
2021/03/30 00:09:55;;;;;;;19.65;9.90;;;6.50;94.10;;;;;;5030734;28;20034;-80
2021/03/30 00:12:21;;;;;;;16.40;9.98;;;6.50;94.20;;;;;;5025686;28;20053;-80
2021/03/30 00:14:47;;;;;;;15.50;9.98;;;6.60;94.20;;;;;;5033479;28;20053;-80
2021/03/30 00:17:13;;;;;;;14.32;9.80;;;6.50;94.20;;;;;;5033095;28;20470;-80
2021/03/30 00:19:39;;;;;;;21.02;10.00;;;6.50;94.20;;;;;;5032288;28;20092;-80
2021/03/30 00:22:04;;;;;;;16.38;9.90;;;6.50;94.20;;;;;;5027907;28;20042;-81
2021/03/30 00:24:30;;;;;;;17.55;10.75;;;6.50;94.20;;;;;;5031680;28;20045;-80
2021/03/30 00:26:56;;;;;;;17.92;9.63;;;6.50;94.20;;;;;;5042532;28;20033;-80
2021/03/30 00:29:22;;;;;;;15.45;9.50;;;6.50;94.20;;;;;;5032255;28;20049;-80
2021/03/30 00:31:48;;;;;;;20.08;11.05;;;6.40;94.20;;;;;;5023649;28;20088;-81
2021/03/30 00:34:13;;;;;;;16.38;11.05;;;6.40;94.20;;;;;;5031831;28;20461;-80
2021/03/30 00:36:39;;;;;;;19.02;9.95;;;6.50;94.20;;;;;;5028944;28;20071;-80
2021/03/30 00:39:05;;;;;;;17.33;10.30;;;6.40;94.10;;;;;;5032230;28;20040;-80
2021/03/30 00:41:42;;;;;;;14.95;9.70;;;6.40;94.10;;;;;;5034981;28;20052;-80
2021/03/30 00:44:12;;;;;;;16.67;10.32;;;6.40;94.00;;;;;;5025818;28;20046;-81
2021/03/30 00:46:43;;;;;;;16.98;10.05;;;6.40;94.00;;;;;;5028511;28;20038;-81
2021/03/30 00:49:08;;;;;;;16.40;10.57;;;6.40;93.90;;;;;;5042078;28;20052;-81
2021/03/30 00:51:35;;;;;;;16.65;10.23;;;6.40;93.90;;;;;;5037672;28;20153;-81
2021/03/30 00:54:00;;;;;;;17.73;10.63;;;6.50;93.80;;;;;;5030345;28;20048;-80
2021/03/30 00:56:27;;;;;;;15.73;9.82;;;6.50;93.70;;;;;;5035143;28;20033;-80
2021/03/30 00:58:56;;;;;;;15.30;10.02;;;6.50;93.60;;;;;;5031330;28;20091;-81
2021/03/30 01:01:22;;;;;;;13.95;9.75;;;6.60;93.50;;;;;;5033449;28;20040;-80
2021/03/30 01:03:48;;;;;;;16.05;10.07;;;6.60;93.40;;;;;;5041297;28;20521;-80
2021/03/30 01:06:13;;;;;;;15.35;10.68;;;6.70;93.30;;;;;;5035294;28;20038;-80
2021/03/30 01:08:51;;;;;;;15.05;10.05;;;6.70;93.20;;;;;;5030905;28;20053;-80
2021/03/30 01:11:32;;;;;;;14.18;10.40;;;6.70;93.00;;;;;;5036303;28;20029;-80
2021/03/30 01:14:13;;;;;;;16.08;11.43;;;6.80;93.00;;;;;;5031651;28;20118;-80
2021/03/30 01:16:44;;;;;;;13.82;10.88;;;6.80;92.80;;;;;;5029863;28;20045;-80
2021/03/30 01:19:44;;;;;;;15.07;10.30;;;6.80;92.70;;;;;;5036856;28;20042;-80
2021/03/30 01:22:49;;;;;;;17.67;10.38;;;6.90;92.70;;;;;;5018327;28;22470;-80
2021/03/30 01:25:16;;;;;;;15.27;9.73;;;7.00;92.50;;;;;;5010640;28;20056;-81
2021/03/30 01:28:03;;;;;;;16.70;10.55;;;7.00;92.50;;;;;;5033768;28;20112;-81
2021/03/30 01:30:32;;;;;;;16.75;9.98;;;7.00;92.40;;;;;;5028481;28;20125;-81
2021/03/30 01:33:05;;;;;;;16.20;10.35;;;7.10;92.40;;;;;;5035639;28;20042;-81
2021/03/30 01:35:33;;;;;;;15.27;10.18;;;7.10;92.30;;;;;;5034858;28;20042;-81
2021/03/30 01:37:59;;;;;;;18.63;10.20;;;7.10;92.10;;;;;;5039223;28;20370;-81
2021/03/30 01:40:32;;;;;;;20.55;10.38;;;7.10;92.00;;;;;;5026565;28;20037;-81
2021/03/30 01:43:00;;;;;;;13.40;9.88;;;7.10;91.90;;;;;;5036200;28;20049;-80
2021/03/30 01:45:27;;;;;;;15.57;10.98;;;7.10;91.80;;;;;;5032397;28;20044;-81
2021/03/30 01:47:53;;;;;;;13.90;9.95;;;7.20;91.70;;;;;;5054063;28;20064;-81
2021/03/30 01:50:21;;;;;;;14.82;10.20;;;7.20;91.70;;;;;;5034012;28;20065;-81
2021/03/30 01:52:52;;;;;;;16.23;10.30;;;7.10;91.70;;;;;;5039924;28;20087;-81
2021/03/30 01:55:18;;;;;;;14.60;9.63;;;7.10;91.70;;;;;;5026484;28;20060;-81
2021/03/30 01:57:54;;;;;;;17.38;10.27;;;7.00;91.60;;;;;;5037917;28;20060;-81
2021/03/30 02:00:22;;;;;;;13.95;9.75;;;7.10;91.60;;;;;;5028871;28;20044;-81
2021/03/30 02:02:48;;;;;;;17.25;9.38;;;7.10;91.60;;;;;;5029873;28;20046;-81
2021/03/30 02:05:16;;;;;;;13.18;9.80;;;7.00;91.50;;;;;;5030035;28;20632;-80
2021/03/30 02:07:44;;;;;;;16.33;10.10;;;7.10;91.50;;;;;;5036411;28;20046;-81
2021/03/30 02:10:20;;;;;;;16.00;9.85;;;7.00;91.40;;;;;;5034120;28;20458;-81
2021/03/30 02:12:46;;;;;;;13.48;9.70;;;7.00;91.50;;;;;;5037733;28;20044;-81
2021/03/30 02:15:16;;;;;;;16.17;9.38;;;7.00;91.40;;;;;;5018505;28;20092;-81
2021/03/30 02:18:00;;;;;;;14.48;9.75;;;7.00;91.40;;;;;;5046692;28;20559;-81
2021/03/30 02:20:35;;;;;;;13.90;10.02;;;7.00;91.40;;;;;;5053688;28;20174;-81
2021/03/30 02:23:06;;;;;;;14.82;9.98;;;6.90;91.40;;;;;;5050397;28;20045;-80
2021/03/30 02:25:33;;;;;;;14.63;9.32;;;6.90;91.40;;;;;;5037538;28;20116;-80
2021/03/30 02:28:05;;;;;;;12.73;9.63;;;6.90;91.40;;;;;;5028524;28;20414;-81
2021/03/30 02:30:33;;;;;;;15.00;10.00;;;6.80;91.40;;;;;;5038748;28;20117;-81
2021/03/30 02:33:00;;;;;;;15.55;9.57;;;6.80;91.50;;;;;;5030964;28;20490;-81
2021/03/30 02:35:27;;;;;;;14.75;10.07;;;6.70;91.40;;;;;;5036059;28;20116;-81
2021/03/30 02:37:54;;;;;;;19.17;9.98;;;6.70;91.40;;;;;;5035580;28;20071;-81
2021/03/30 02:40:22;;;;;;;14.55;9.60;;;6.70;91.50;;;;;;5037923;28;20041;-81
2021/03/30 02:42:49;;;;;;;14.15;9.45;;;6.70;91.50;;;;;;5030227;28;20048;-80
2021/03/30 02:45:19;;;;;;;16.27;9.90;;;6.60;91.40;;;;;;5035235;28;20097;-81
2021/03/30 02:47:47;;;;;;;13.63;10.45;;;6.60;91.50;;;;;;5029662;28;20104;-81
2021/03/30 02:50:13;;;;;;;18.42;10.88;;;6.60;91.50;;;;;;5035952;28;20053;-81
2021/03/30 02:52:41;;;;;;;14.07;9.80;;;6.60;91.60;;;;;;5033643;28;20105;-81
2021/03/30 02:55:07;;;;;;;16.05;9.80;;;6.50;91.60;;;;;;5035265;28;20052;-81
2021/03/30 02:57:33;;;;;;;16.83;10.23;;;6.50;91.70;;;;;;5032171;28;20041;-80
2021/03/30 03:00:00;;;;;;;14.88;10.55;;;6.50;91.70;;;;;;5036872;28;20049;-80
2021/03/30 03:02:47;;;;;;;19.27;10.18;;;6.50;91.70;;;;;;5041436;28;20058;-81
2021/03/30 03:05:14;;;;;;;13.43;10.13;;;6.40;91.70;;;;;;5041147;28;20037;-81
2021/03/30 03:07:40;;;;;;;17.02;9.75;;;6.40;91.70;;;;;;5032174;28;20041;-81
2021/03/30 03:10:08;;;;;;;13.43;9.50;;;6.30;91.70;;;;;;5052748;28;20107;-81
2021/03/30 03:12:38;;;;;;;13.55;10.10;;;6.30;91.70;;;;;;5032208;28;20068;-81
2021/03/30 03:15:07;;;;;;;15.05;9.70;;;6.30;91.80;;;;;;5035225;28;20084;-81
2021/03/30 03:17:35;;;;;;;18.48;10.43;;;6.30;91.80;;;;;;5038002;28;20203;-80
2021/03/30 03:20:04;;;;;;;14.55;8.93;;;6.20;91.80;;;;;;5035498;28;20175;-81
2021/03/30 03:22:30;;;;;;;15.07;9.77;;;6.20;91.80;;;;;;5041020;28;20065;-81
2021/03/30 03:24:59;;;;;;;14.68;9.48;;;6.20;91.90;;;;;;5033367;28;20045;-81
2021/03/30 03:27:26;;;;;;;14.38;9.40;;;6.20;91.90;;;;;;5038685;28;20045;-81
2021/03/30 03:29:52;;;;;;;14.27;11.10;;;6.10;91.90;;;;;;5026956;28;20096;-81
2021/03/30 03:32:23;;;;;;;16.52;10.57;;;6.00;92.00;;;;;;5035654;28;20107;-82
2021/03/30 03:34:48;;;;;;;17.15;10.18;;;6.00;92.20;;;;;;5040060;28;20072;-81
2021/03/30 03:37:14;;;;;;;17.75;11.13;;;5.90;92.20;;;;;;5050118;28;20046;-81
2021/03/30 03:39:40;;;;;;;14.82;9.95;;;5.90;92.20;;;;;;5039523;28;20065;-81
2021/03/30 03:42:06;;;;;;;15.55;10.10;;;5.80;92.30;;;;;;5033585;28;20021;-81
2021/03/30 03:44:32;;;;;;;15.75;10.30;;;5.70;92.40;;;;;;5032068;28;20033;-81
2021/03/30 03:46:58;;;;;;;14.00;10.07;;;5.70;92.50;;;;;;5037915;28;20072;-81
2021/03/30 03:49:25;;;;;;;16.33;10.35;;;5.70;92.50;;;;;;5030667;28;23639;-81
2021/03/30 03:52:12;;;;;;;14.18;10.95;;;5.60;92.60;;;;;;5032256;28;20708;-81
2021/03/30 03:54:40;;;;;;;16.40;10.80;;;5.60;92.70;;;;;;5026419;28;20049;-81
2021/03/30 03:57:13;;;;;;;19.02;10.95;;;5.50;92.70;;;;;;5029742;28;20041;-81
2021/03/30 03:59:43;;;;;;;15.85;10.27;;;5.40;92.80;;;;;;5026528;28;20151;-81
2021/03/30 04:02:38;;;;;;;18.60;11.60;;;5.40;93.20;;;;;;5032575;28;20052;-81
2021/03/30 04:05:10;;;;;;;;;;;5.40;92.90;;;;;;5028548;28;20544;-81
2021/03/30 04:07:59;;;;;;;15.68;11.55;;;5.30;92.70;;;;;;5045509;28;19940;-81
2021/03/30 04:10:27;;;;;;;16.60;11.20;;;5.20;93.00;;;;;;5028559;28;20065;-81
2021/03/30 04:12:54;;;;;;;15.18;10.98;;;5.10;93.10;;;;;;5031420;28;20227;-82
2021/03/30 04:15:21;;;;;;;16.35;11.27;;;5.10;93.20;;;;;;5029553;28;20061;-81
2021/03/30 04:17:48;;;;;;;16.55;11.30;;;5.10;93.20;;;;;;5023810;28;20042;-81
2021/03/30 04:20:15;;;;;;;17.00;12.60;;;5.10;93.30;;;;;;5034936;28;20048;-80
2021/03/30 04:22:45;;;;;;;17.20;11.32;;;5.00;93.30;;;;;;5029278;28;20030;-81
2021/03/30 04:25:11;;;;;;;17.40;12.55;;;5.00;93.30;;;;;;5045754;28;20740;-81
2021/03/30 04:27:37;;;;;;;17.42;11.90;;;5.00;93.40;;;;;;5026768;28;20073;-80
2021/03/30 04:30:04;;;;;;;18.20;12.73;;;4.90;93.50;;;;;;5033682;28;20100;-81
2021/03/30 04:32:30;;;;;;;16.92;13.68;;;4.90;93.50;;;;;;5028523;28;20172;-80
2021/03/30 04:34:56;;;;;;;19.58;11.13;;;4.80;93.60;;;;;;5035334;28;20100;-80
2021/03/30 04:37:22;;;;;;;18.63;12.48;;;4.80;93.70;;;;;;4997591;28;20466;-80
2021/03/30 04:39:48;;;;;;;17.85;12.55;;;4.80;93.70;;;;;;5034431;28;20077;-81
2021/03/30 04:42:14;;;;;;;20.50;16.33;;;4.70;93.70;;;;;;5023526;28;20107;-81
2021/03/30 04:44:40;;;;;;;19.92;14.18;;;4.70;93.70;;;;;;5033429;28;20042;-79
2021/03/30 04:47:06;;;;;;;23.48;15.02;;;4.70;93.80;;;;;;5028720;28;20045;-80
2021/03/30 04:49:32;;;;;;;20.42;14.85;;;4.60;93.80;;;;;;5032587;28;20113;-80
2021/03/30 04:51:58;;;;;;;20.50;14.48;;;4.60;93.80;;;;;;5026556;28;20060;-80
2021/03/30 04:54:24;;;;;;;18.95;14.57;;;4.60;93.90;;;;;;5026418;28;20045;-80
2021/03/30 04:56:50;;;;;;;19.00;14.52;;;4.50;93.90;;;;;;5027497;28;20528;-80
2021/03/30 04:59:15;;;;;;;22.40;16.38;;;4.50;94.00;;;;;;5029504;28;20049;-80
2021/03/30 05:01:41;;;;;;;17.23;14.07;;;4.50;94.10;;;;;;5031477;28;20052;-80
2021/03/30 05:04:07;;;;;;;20.88;13.95;;;4.40;94.20;;;;;;5044237;28;20481;-79
2021/03/30 05:06:34;;;;;;;20.17;14.20;;;4.40;94.20;;;;;;5031350;28;20485;-79
2021/03/30 05:08:59;;;;;;;19.20;14.13;;;4.40;94.30;;;;;;5032095;28;20030;-81
2021/03/30 05:11:25;;;;;;;17.90;13.00;;;4.40;94.30;;;;;;5046520;28;20071;-80
2021/03/30 05:13:51;;;;;;;20.77;13.57;;;4.30;94.30;;;;;;5027240;28;20042;-80
2021/03/30 05:16:17;;;;;;;19.95;14.05;;;4.30;94.40;;;;;;5034924;28;20057;-80
2021/03/30 05:18:44;;;;;;;23.30;14.32;;;4.30;94.40;;;;;;5035928;28;20156;-80
2021/03/30 05:21:10;;;;;;;18.30;12.70;;;4.20;94.40;;;;;;5033494;28;20108;-79
2021/03/30 05:23:37;;;;;;;20.27;13.43;;;4.20;94.50;;;;;;5024178;28;20034;-81
2021/03/30 05:26:03;;;;;;;20.80;13.38;;;4.20;94.50;;;;;;5030105;28;20037;-82
2021/03/30 05:28:33;;;;;;;17.45;12.30;;;4.20;94.50;;;;;;5025451;28;20056;-83
2021/03/30 05:30:58;;;;;;;18.63;13.70;;;4.20;94.60;;;;;;5039436;28;20037;-80
2021/03/30 05:33:24;;;;;;;20.02;14.55;;;4.10;94.60;;;;;;5030714;28;21084;-82
2021/03/30 05:35:50;;;;;;;22.08;14.88;;;4.20;94.60;;;;;;5040488;28;20124;-83
2021/03/30 05:38:16;;;;;;;17.73;13.38;;;4.20;94.70;;;;;;5035405;28;20052;-79
2021/03/30 05:40:42;;;;;;;19.25;13.68;;;4.20;94.80;;;;;;5022245;28;20443;-79
2021/03/30 05:43:11;;;;;;;132.68;102.95;;;4.20;94.80;;;;;;5029024;28;20489;-79
2021/03/30 05:45:37;;;;;;;28.02;17.90;;;4.20;94.80;;;;;;5006808;28;20042;-78
2021/03/30 05:48:09;;;;;;;25.17;16.30;;;4.30;94.90;;;;;;5035847;28;20397;-79
2021/03/30 05:50:35;;;;;;;20.52;14.02;;;4.30;95.00;;;;;;5022698;28;20044;-83
2021/03/30 05:53:09;;;;;;;19.88;14.40;;;4.40;95.00;;;;;;5036627;28;20060;-82
2021/03/30 05:55:40;;;;;;;18.55;14.23;;;4.70;95.20;;;;;;5023820;28;20038;-81
2021/03/30 05:58:08;;;;;;;15.80;11.90;;;4.90;95.10;;;;;;5030862;28;20060;-81
2021/03/30 06:00:41;;;;;;;19.35;13.55;;;5.20;94.80;;;;;;5044113;28;20057;-81
2021/03/30 06:03:09;;;;;;;17.13;13.45;;;5.30;94.60;;;;;;5035426;28;20044;-81
2021/03/30 06:05:36;;;;;;;18.33;12.63;;;5.50;94.50;;;;;;5030724;28;20074;-82
2021/03/30 06:08:03;;;;;;;19.92;14.25;;;5.60;94.50;;;;;;5029317;28;20045;-82
2021/03/30 06:10:31;;;;;;;19.85;14.70;;;5.70;94.40;;;;;;5038572;28;20839;-81
2021/03/30 06:12:58;;;;;;;20.08;13.60;;;5.90;94.40;;;;;;5031388;28;20046;-81
2021/03/30 06:15:28;;;;;;;19.17;14.50;;;6.10;94.20;;;;;;5029047;28;20124;-81
2021/03/30 06:17:55;;;;;;;16.10;11.32;;;6.30;94.20;;;;;;5032443;28;20125;-81
2021/03/30 06:20:24;;;;;;;19.60;13.95;;;6.50;94.20;;;;;;5029729;28;20064;-81
2021/03/30 06:22:52;;;;;;;16.70;12.25;;;6.70;93.90;;;;;;5033427;28;20033;-81
2021/03/30 06:25:43;;;;;;;15.65;11.73;;;6.90;93.80;;;;;;5030336;28;20056;-81
2021/03/30 06:28:25;;;;;;;13.88;9.88;;;7.20;93.60;;;;;;5033824;28;20582;-81
2021/03/30 06:31:10;;;;;;;18.17;12.25;;;7.50;93.40;;;;;;5031987;28;20053;-80
2021/03/30 06:34:05;;;;;;;14.80;10.63;;;7.80;93.00;;;;;;5029800;28;20077;-80
2021/03/30 06:36:32;;;;;;;19.88;10.68;;;8.10;92.40;;;;;;5016748;28;20045;-80
2021/03/30 06:39:02;;;;;;;18.30;10.02;;;8.40;92.10;;;;;;5038754;28;20046;-81
2021/03/30 06:41:40;;;;;;;12.35;8.85;;;8.70;91.30;;;;;;5018079;28;20432;-80
2021/03/30 06:47:12;;;;;;;13.45;9.20;;;9.30;90.10;;;;;;5027721;28;20045;-80
2021/03/30 06:49:58;;;;;;;14.90;8.93;;;9.60;88.00;;;;;;5027702;28;20108;-80
2021/03/30 06:52:35;;;;;;;13.80;8.77;;;9.90;87.80;;;;;;5022847;28;20041;-79
2021/03/30 06:55:10;;;;;;;15.82;8.48;;;10.10;86.90;;;;;;5036047;28;20042;-79
2021/03/30 06:57:35;;;;;;;;;;;10.40;86.10;;;;;;5027994;28;20129;-79
2021/03/30 07:00:11;;;;;;;11.57;8.07;;;10.60;81.80;;;;;;5040469;28;19960;-80
2021/03/30 07:02:41;;;;;;;13.38;8.45;;;10.90;84.30;;;;;;5019046;28;20386;-80
2021/03/30 07:05:20;;;;;;;13.10;7.63;;;11.10;83.10;;;;;;5032561;28;20041;-80
2021/03/30 07:07:49;;;;;;;11.20;7.10;;;11.30;80.00;;;;;;5024636;28;20042;-80
2021/03/30 07:10:15;;;;;;;13.30;7.80;;;11.60;77.90;;;;;;5016441;28;20374;-80
2021/03/30 07:12:48;;;;;;;10.55;7.45;;;11.80;78.80;;;;;;5026247;28;20076;-80
2021/03/30 07:15:15;;;;;;;11.95;7.45;;;12.00;77.00;;;;;;5029009;28;20049;-78
2021/03/30 07:17:43;;;;;;;12.23;7.43;;;12.20;75.80;;;;;;5021228;28;20038;-77
2021/03/30 07:20:10;;;;;;;11.48;7.30;;;12.40;75.00;;;;;;5023488;28;20034;-77
2021/03/30 07:22:41;;;;;;;11.75;6.75;;;12.60;73.90;;;;;;5023824;28;20440;-79
2021/03/30 07:25:11;;;;;;;10.30;6.78;;;12.90;72.90;;;;;;5027521;28;20029;-78
2021/03/30 07:27:51;;;;;;;11.70;6.88;;;13.10;72.00;;;;;;5021603;28;20037;-79
2021/03/30 07:30:17;;;;;;;11.63;6.00;;;13.40;71.10;;;;;;5012441;28;20053;-78
2021/03/30 07:33:06;;;;;;;13.13;6.50;;;13.60;70.70;;;;;;5032178;28;20060;-81
2021/03/30 07:35:38;;;;;;;14.50;6.40;;;13.80;65.70;;;;;;5029650;28;20037;-79
2021/03/30 07:38:10;;;;;;;9.60;5.70;;;14.10;68.00;;;;;;5025345;28;20405;-79
2021/03/30 07:40:41;;;;;;;11.75;6.10;;;14.30;65.30;;;;;;5027254;28;20048;-80
2021/03/30 07:43:09;;;;;;;11.38;5.43;;;14.60;65.00;;;;;;5027354;28;20124;-79
2021/03/30 07:45:38;;;;;;;10.95;5.18;;;14.70;63.90;;;;;;5026108;28;20029;-80
2021/03/30 07:48:06;;;;;;;11.57;6.03;;;14.90;62.70;;;;;;5030806;28;20045;-79
2021/03/30 07:51:14;;;;;;;9.32;5.13;;;15.00;61.50;;;;;;5042779;28;20043;-81
2021/03/30 07:53:51;;;;;;;10.65;5.88;;;15.00;58.20;;;;;;5032288;28;20054;-81
2021/03/30 07:56:23;;;;;;;12.02;5.43;;;15.10;60.10;;;;;;5048479;28;20045;-78
2021/03/30 07:58:50;;;;;;;11.73;5.47;;;15.30;58.30;;;;;;5023501;28;20159;-79
2021/03/30 08:01:19;;;;;;;9.98;5.68;;;15.50;60.10;;;;;;5026108;28;20053;-80
2021/03/30 08:03:46;;;;;;;12.48;6.55;;;15.70;58.70;;;;;;5030714;28;20132;-80
2021/03/30 08:06:18;;;;;;;11.52;5.90;;;15.80;58.60;;;;;;5020237;28;20135;-79
2021/03/30 08:08:44;;;;;;;10.65;6.30;;;15.90;57.20;;;;;;5026920;28;20053;-79
2021/03/30 08:11:10;;;;;;;12.63;6.50;;;15.90;57.10;;;;;;5020059;28;20085;-79
2021/03/30 08:13:48;;;;;;;11.73;6.15;;;15.80;56.10;;;;;;5028242;28;20497;-78
2021/03/30 08:16:16;;;;;;;10.00;6.38;;;15.70;54.20;;;;;;5015020;28;20458;-78
2021/03/30 08:18:44;;;;;;;12.23;6.15;;;15.90;56.90;;;;;;5025167;28;20052;-80
2021/03/30 08:21:18;;;;;;;9.88;6.18;;;16.00;55.80;;;;;;5026427;28;20054;-79
2021/03/30 08:23:53;;;;;;;12.48;6.40;;;16.10;55.30;;;;;;5024902;28;20560;-79
2021/03/30 08:26:30;;;;;;;8.60;5.70;;;16.20;54.20;;;;;;5022862;28;20092;-79
2021/03/30 08:29:12;;;;;;;16.95;6.85;;;16.40;54.70;;;;;;5022292;28;20049;-79
2021/03/30 08:31:43;;;;;;;10.07;5.50;;;16.60;56.00;;;;;;5019189;28;20037;-79
2021/03/30 08:34:15;;;;;;;13.32;6.00;;;16.70;55.80;;;;;;5026285;28;20117;-79
2021/03/30 08:36:44;;;;;;;11.25;5.88;;;16.80;55.40;;;;;;5022116;28;20049;-78
2021/03/30 08:39:28;;;;;;;9.27;6.53;;;16.90;54.70;;;;;;5027695;28;20034;-79
2021/03/30 08:41:56;;;;;;;9.67;6.33;;;16.90;54.40;;;;;;5015744;28;20038;-79
2021/03/30 08:45:06;;;;;;;10.43;6.60;;;17.00;54.90;;;;;;5026156;28;20297;-79
2021/03/30 08:47:32;;;;;;;12.65;6.15;;;17.00;53.40;;;;;;5023810;28;20572;-79
2021/03/30 08:50:25;;;;;;;9.95;6.38;;;16.90;54.60;;;;;;5024627;28;20050;-79
2021/03/30 08:52:57;;;;;;;15.43;7.07;;;16.90;51.10;;;;;;5002275;28;20059;-78
2021/03/30 08:55:32;;;;;;;9.82;6.35;;;17.00;55.90;;;;;;5025809;28;20092;-78
2021/03/30 08:57:58;;;;;;;;;;;17.10;53.30;;;;;;5018883;28;20044;-80
2021/03/30 09:00:24;;;;;;;13.15;6.57;;;17.20;50.20;;;;;;5023004;28;19959;-79
2021/03/30 09:03:05;;;;;;;13.20;5.90;;;17.30;56.00;;;;;;5017715;28;20058;-79
2021/03/30 09:05:39;;;;;;;11.32;6.25;;;17.50;53.50;;;;;;5025350;28;20043;-79
2021/03/30 09:08:11;;;;;;;11.40;5.80;;;17.40;52.20;;;;;;5021307;28;20075;-79
2021/03/30 09:10:37;;;;;;;10.43;6.07;;;17.30;53.10;;;;;;5023087;28;20056;-79
2021/03/30 09:13:13;;;;;;;8.70;5.88;;;17.20;53.70;;;;;;5029866;28;20046;-78
2021/03/30 09:15:39;;;;;;;10.20;5.82;;;17.30;53.30;;;;;;5021451;28;20426;-78
2021/03/30 09:18:05;;;;;;;11.55;5.53;;;17.30;54.60;;;;;;5021897;28;20101;-78
2021/03/30 09:20:34;;;;;;;11.90;5.47;;;17.60;53.50;;;;;;5024981;28;20097;-78
2021/03/30 09:23:05;;;;;;;11.18;5.25;;;17.70;53.40;;;;;;5016552;28;20466;-78
2021/03/30 09:25:38;;;;;;;10.70;5.50;;;17.80;51.90;;;;;;5024889;28;20037;-79
2021/03/30 09:28:04;;;;;;;9.05;5.78;;;17.80;52.50;;;;;;5020829;28;20049;-79
2021/03/30 09:30:30;;;;;;;10.18;5.22;;;17.90;50.80;;;;;;5044413;28;20547;-79
2021/03/30 09:32:57;;;;;;;11.50;6.13;;;17.90;50.90;;;;;;5017998;28;20058;-79
2021/03/30 09:35:25;;;;;;;12.60;6.47;;;17.90;50.00;;;;;;5026469;28;20076;-80
2021/03/30 09:37:58;;;;;;;9.82;5.32;;;17.90;51.00;;;;;;5023144;28;20058;-80
2021/03/30 09:40:27;;;;;;;9.73;5.63;;;17.90;52.30;;;;;;5026245;28;20042;-80
2021/03/30 09:42:54;;;;;;;10.60;5.82;;;18.00;51.50;;;;;;5022990;28;20048;-80
2021/03/30 09:45:24;;;;;;;10.32;5.80;;;18.00;50.70;;;;;;5027208;28;20041;-79
2021/03/30 09:47:50;;;;;;;10.52;5.07;;;17.90;50.60;;;;;;5025506;28;20057;-79
2021/03/30 09:50:20;;;;;;;10.70;6.10;;;18.00;51.30;;;;;;5024931;28;20080;-79
2021/03/30 09:52:46;;;;;;;9.95;4.97;;;18.20;51.60;;;;;;5026753;28;20060;-80
2021/03/30 09:55:26;;;;;;;13.15;5.10;;;18.40;50.30;;;;;;5025979;28;21460;-80
2021/03/30 09:57:59;;;;;;;11.85;5.22;;;18.50;50.30;;;;;;5033616;28;20091;-80
2021/03/30 10:00:26;;;;;;;10.13;5.30;;;18.50;49.20;;;;;;5028121;28;20101;-80
2021/03/30 10:02:51;;;;;;;9.77;4.80;;;18.60;48.70;;;;;;5025325;28;20050;-80
2021/03/30 10:05:17;;;;;;;13.93;5.38;;;18.60;49.30;;;;;;5027360;28;20037;-79
2021/03/30 10:07:43;;;;;;;8.82;4.65;;;18.80;48.70;;;;;;5033808;28;20423;-79
2021/03/30 10:10:11;;;;;;;11.27;6.00;;;18.80;49.10;;;;;;5025932;28;20038;-79
2021/03/30 10:12:53;;;;;;;10.75;5.10;;;18.80;49.40;;;;;;5030545;28;20616;-79
2021/03/30 10:15:33;;;;;;;12.05;5.30;;;18.80;47.90;;;;;;5025427;28;20075;-80
2021/03/30 10:17:59;;;;;;;10.38;4.70;;;18.80;47.90;;;;;;5028498;28;20460;-80
2021/03/30 10:20:26;;;;;;;11.95;5.97;;;18.90;48.40;;;;;;5026247;28;20049;-80
2021/03/30 10:22:52;;;;;;;10.02;5.15;;;19.00;47.70;;;;;;5041296;28;20513;-80
2021/03/30 10:25:29;;;;;;;9.98;4.70;;;19.10;48.60;;;;;;5025762;28;20171;-80
2021/03/30 10:28:00;;;;;;;13.80;6.15;;;19.10;45.20;;;;;;5045031;28;20050;-80
2021/03/30 10:30:30;;;;;;;8.98;5.05;;;19.20;45.80;;;;;;5022037;28;20038;-80
2021/03/30 10:33:00;;;;;;;11.57;5.65;;;19.20;47.00;;;;;;5033518;28;20148;-80
2021/03/30 10:35:26;;;;;;;10.30;5.90;;;19.30;47.30;;;;;;5026246;28;20048;-80
2021/03/30 10:37:53;;;;;;;10.98;5.38;;;19.30;47.90;;;;;;5010617;28;20064;-80
2021/03/30 10:40:19;;;;;;;11.02;5.65;;;19.40;47.50;;;;;;5026108;28;20053;-80
2021/03/30 10:42:46;;;;;;;10.52;5.50;;;19.40;47.80;;;;;;5028549;28;20047;-81
2021/03/30 10:45:12;;;;;;;11.70;5.10;;;19.40;47.30;;;;;;5026377;28;20068;-80
2021/03/30 10:47:41;;;;;;;10.70;5.63;;;19.50;47.40;;;;;;5031280;28;20051;-80
2021/03/30 10:50:12;;;;;;;9.07;4.85;;;19.60;47.20;;;;;;5029594;28;20050;-80
2021/03/30 10:52:39;;;;;;;9.93;5.05;;;19.60;47.00;;;;;;5028581;28;20140;-80
2021/03/30 10:55:11;;;;;;;13.32;5.15;;;19.70;46.30;;;;;;5029447;28;20053;-80
2021/03/30 10:57:40;;;;;;;8.30;4.35;;;19.60;45.40;;;;;;5036807;28;20066;-80
2021/03/30 11:00:08;;;;;;;8.65;4.32;;;19.60;45.30;;;;;;5032441;28;20436;-80
2021/03/30 11:02:34;;;;;;;7.70;5.10;;;19.70;45.40;;;;;;5021802;28;20342;-80
2021/03/30 11:05:00;;;;;;;12.65;4.93;;;19.70;45.80;;;;;;5032774;28;20033;-80
2021/03/30 11:07:26;;;;;;;8.68;4.25;;;19.80;45.60;;;;;;5023808;28;20045;-80
2021/03/30 11:09:52;;;;;;;10.95;5.10;;;19.90;46.20;;;;;;5027269;28;20045;-80
2021/03/30 11:12:18;;;;;;;10.77;4.93;;;19.90;44.10;;;;;;5025680;28;20073;-80
2021/03/30 11:14:44;;;;;;;9.70;4.93;;;19.90;44.60;;;;;;5034168;28;20631;-80
2021/03/30 11:17:10;;;;;;;10.13;4.50;;;19.90;44.70;;;;;;5023152;28;20046;-81
2021/03/30 11:19:36;;;;;;;8.02;4.90;;;19.90;45.30;;;;;;5032467;28;20034;-80
2021/03/30 11:22:04;;;;;;;9.77;4.13;;;19.90;45.40;;;;;;5026505;28;20049;-81
2021/03/30 11:24:34;;;;;;;10.27;5.15;;;20.00;44.80;;;;;;5028256;28;20140;-80
2021/03/30 11:27:00;;;;;;;10.07;4.50;;;20.10;44.90;;;;;;5023941;28;20056;-80
2021/03/30 11:32:27;;;;;;;7.43;3.58;;;20.20;43.10;;;;;;5030750;28;20105;-80
2021/03/30 11:34:59;;;;;;;7.80;3.92;;;20.20;40.60;;;;;;5028915;28;20113;-80
2021/03/30 11:39:57;;;;;;;5.93;3.75;;;20.30;40.40;;;;;;5029874;28;20037;-80
2021/03/30 11:42:24;;;;;;;8.98;4.70;;;20.30;40.10;;;;;;5026690;28;20543;-80
2021/03/30 11:44:51;;;;;;;9.63;4.55;;;20.40;41.80;;;;;;5014275;28;20091;-79
2021/03/30 11:47:17;;;;;;;8.02;4.47;;;20.40;42.20;;;;;;5032267;28;20655;-79
2021/03/30 11:49:43;;;;;;;8.70;4.45;;;20.30;42.50;;;;;;5022265;28;20053;-79
2021/03/30 11:52:09;;;;;;;9.77;4.60;;;20.30;42.70;;;;;;5028830;28;20377;-79
2021/03/30 11:54:36;;;;;;;10.38;4.85;;;20.20;41.90;;;;;;5016280;28;20045;-79
2021/03/30 11:57:02;;;;;;;8.23;4.60;;;20.10;42.30;;;;;;5026279;28;20522;-79
2021/03/30 11:59:28;;;;;;;10.98;4.78;;;20.10;42.10;;;;;;5022067;28;20053;-79
2021/03/30 12:01:55;;;;;;;4.50;2.72;;;20.00;42.20;;;;;;5023372;28;20116;-79
2021/03/30 12:04:21;;;;;;;5.45;3.15;;;20.00;41.50;;;;;;5026841;28;20060;-80
2021/03/30 12:06:47;;;;;;;7.18;4.25;;;20.00;42.00;;;;;;5028007;28;20030;-79
2021/03/30 12:09:13;;;;;;;8.18;3.92;;;20.20;42.10;;;;;;5018967;28;20042;-79
2021/03/30 12:11:43;;;;;;;5.05;2.40;;;20.20;41.70;;;;;;5022273;28;20137;-79
2021/03/30 12:14:10;;;;;;;6.68;1.98;;;20.20;38.70;;;;;;5014965;28;20046;-79
2021/03/30 12:16:36;;;;;;;5.15;1.95;;;20.30;37.80;;;;;;5024501;28;20438;-79
2021/03/30 12:19:02;;;;;;;5.03;1.83;;;20.30;36.20;;;;;;5015375;28;20100;-79
2021/03/30 12:21:28;;;;;;;3.25;1.63;;;20.40;34.30;;;;;;5027571;28;20038;-81
2021/03/30 12:23:55;;;;;;;5.13;1.48;;;20.40;33.00;;;;;;5036487;28;20104;-82
2021/03/30 12:26:21;;;;;;;3.75;1.88;;;20.40;34.10;;;;;;5030338;28;20037;-82
2021/03/30 12:28:47;;;;;;;3.10;2.20;;;20.40;34.30;;;;;;5033290;28;20044;-82
2021/03/30 12:31:13;;;;;;;4.40;1.95;;;20.40;34.60;;;;;;5032966;28;20159;-82
2021/03/30 12:33:39;;;;;;;4.95;2.33;;;20.30;34.70;;;;;;5038632;28;20045;-82
2021/03/30 12:36:06;;;;;;;3.95;1.83;;;20.30;34.80;;;;;;5045956;28;20049;-82
2021/03/30 12:38:52;;;;;;;4.18;1.63;;;20.30;33.30;;;;;;5027905;28;20052;-82
2021/03/30 12:41:18;;;;;;;3.53;2.10;;;20.30;34.30;;;;;;5027195;28;20089;-79
2021/03/30 12:43:44;;;;;;;3.47;2.35;;;20.20;33.30;;;;;;5026686;28;20041;-79
2021/03/30 12:46:11;;;;;;;4.30;2.20;;;20.20;33.30;;;;;;5025385;28;20045;-80
2021/03/30 12:48:37;;;;;;;4.82;2.72;;;20.20;33.20;;;;;;5026254;28;20061;-79
2021/03/30 12:51:06;;;;;;;4.68;2.25;;;20.20;34.00;;;;;;5020724;28;20053;-84
2021/03/30 12:53:33;;;;;;;5.50;2.45;;;20.20;34.30;;;;;;5027723;28;20113;-83
2021/03/30 12:55:59;;;;;;;6.35;2.53;;;20.30;35.00;;;;;;5023697;28;20050;-83
2021/03/30 12:58:24;;;;;;;5.25;2.53;;;20.30;34.10;;;;;;5028289;28;20060;-84
2021/03/30 13:00:51;;;;;;;7.22;2.90;;;20.40;33.80;;;;;;5013374;28;20547;-84